METAR Data
IDs: Format: Raw Decoded Include TAF

Data at: 0341 UTC 18 Jun 2019

PAKI 180256Z AUTO 30018G25KT 10SM CLR 17/12 A2973 RMK AO2 SLP068 T01670122 55001
PAKI 180156Z AUTO 30019G24KT 10SM CLR 20/13 A2972 RMK AO2 SLP065 T02000128
PAKI 180056Z AUTO 31015G21KT 10SM SCT050 20/14 A2972 RMK AO2 WSHFT 0029 SLP066 T02000139
PAKI 180049Z AUTO 31015G22KT 10SM SCT055 21/14 A2972 RMK AO2 WSHFT 0029
PAKI 172356Z AUTO 35013KT 10SM FEW055 22/11 A2973 RMK AO2 SLP068 T02170111 10222 20161 55001
PAKI 172256Z AUTO 01017G22KT 10SM OVC095 21/11 A2973 RMK AO2 SLP068 T02110106
PAKI 172156Z AUTO 36015G18KT 10SM BKN085 21/12 A2973 RMK AO2 SLP068 T02060117
PAKI 172056Z AUTO 30009KT 10SM CLR 19/13 A2973 RMK AO2 SLP069 T01890133 56004
PAKI 171956Z AUTO 30011KT 10SM CLR 17/14 A2974 RMK AO2 SLP071 T01720139
PAKI 171856Z AUTO 32007KT 10SM CLR 17/13 A2973 RMK AO2 SLP071 T01670133
PAKI 171756Z AUTO 33008KT 10SM FEW012 16/13 A2974 RMK AO2 SLP073 T01610133 10161 20122 50000
PAKI 171656Z AUTO 34008KT 10SM FEW007 15/13 A2974 RMK AO2 SLP074 T01500133
PAKI 171456Z AUTO 32005KT 4SM BR FEW001 13/12 A2974 RMK AO2 SLP073 T01280122 53001
PAKI 171444Z AUTO 33005KT 2 1/2SM BR FEW001 12/12 A2974 RMK AO2
PAKI 171356Z AUTO 34006KT 10SM CLR 13/12 A2974 RMK AO2 SLP072 T01280122
PAKI 171256Z AUTO 34005KT 10SM CLR 13/12 A2974 RMK AO2 SLP071 T01280122
PAKI 171156Z AUTO 33007KT 10SM CLR 13/12 A2974 RMK AO2 SLP072 60009 70009 T01330122 10161 20128 56002
PAKI 171056Z AUTO 34006KT 10SM BKN039 14/12 A2974 RMK AO2 SLP072 T01390122
PAKI 170956Z AUTO 35006KT 10SM CLR 14/13 A2974 RMK AO2 SLP073 T01390128
PAKI 170856Z AUTO 35009KT 10SM SCT090 14/13 A2975 RMK AO2 RAE10 SLP074 P0000 60009 T01440133 401890106 58002
PAKI 170756Z AUTO 33006KT 10SM -RA FEW018 OVC032 14/13 A2975 RMK AO2 SLP076 P0009 T01440133
PAKI 170656Z AUTO 31011KT 10SM -RA OVC055 14/13 A2976 RMK AO2 RAE07B27 SLP080 P0000 T01440128
PAKI 170556Z AUTO 34010KT 10SM -RA OVC070 16/12 A2975 RMK AO2 RAB55 SLP076 P0000 60000 T01610117 10189 20161 53001
PAKI 170456Z AUTO 36012KT 10SM BKN070 OVC085 17/11 A2975 RMK AO2 SLP074 T01720106
PAKI 170356Z AUTO 01013KT 10SM SCT075 BKN095 18/11 A2974 RMK AO2 RAB12E32 SLP072 P0000 T01780106
PAKI 170256Z AUTO 03013KT 10SM FEW048 BKN090 18/10 A2975 RMK AO2 SLP075 T01830100 56006
PAKI 170156Z AUTO 02012KT 10SM BKN050 OVC080 18/08 A2975 RMK AO2 SLP075 T01830083
PAKI 170056Z AUTO 04006KT 10SM SCT050 OVC070 18/08 A2976 RMK AO2 SLP079 T01830078
PAKI 162356Z AUTO 01009KT 10SM FEW046 OVC060 18/09 A2977 RMK AO2 SLP081 T01780089 10178 20144 56005
PAKI 162256Z AUTO 01008KT 10SM BKN037 BKN055 18/09 A2977 RMK AO2 SLP082 T01780089
PAKI 162156Z AUTO 32006KT 10SM FEW026 BKN034 OVC055 16/11 A2978 RMK AO2 SLP085 T01610111
PAKI 162056Z AUTO 29003KT 8SM FEW025 BKN034 OVC050 16/10 A2978 RMK AO2 SLP086 T01560100 51004
PAKI 161956Z AUTO 20003KT 10SM BKN050 15/11 A2978 RMK AO2 SLP086 T01500106
PAKI 161856Z AUTO 22006KT 10SM SCT046 OVC055 14/11 A2978 RMK AO2 SLP084 T01440111
PAKI 161838Z AUTO 20004KT 10SM FEW015 SCT038 OVC055 14/11 A2978 RMK AO2
PAKI 161809Z AUTO 20005KT 10SM BKN015 BKN050 14/11 A2977 RMK AO2
PAKI 161756Z AUTO 16004KT 10SM SCT013 BKN050 14/11 A2977 RMK AO2 SLP082 T01440111 10144 20111 51009
PAKI 161656Z AUTO 13004KT 10SM FEW009 SCT090 13/12 A2976 RMK AO2 SLP079 T01330117
PAKI 161615Z AUTO 08004KT 10SM SCT006 BKN070 OVC090 13/12 A2975 RMK AO2
PAKI 161556Z AUTO 05005KT 10SM BKN006 OVC070 13/12 A2975 RMK AO2 SLP076 T01330122